createdAt,value
2018-03-26T00:02:13.204Z,39.83
2018-03-26T00:04:40.822Z,43.10
2018-03-26T00:07:08.548Z,40.37
2018-03-26T00:09:36.239Z,46.77
2018-03-26T00:12:03.866Z,41.27
2018-03-26T00:14:31.554Z,39.07
2018-03-26T00:16:59.213Z,41.00
2018-03-26T00:19:27.394Z,46.30
2018-03-26T00:21:55.901Z,40.27
2018-03-26T00:24:24.408Z,42.93
2018-03-26T00:26:57.296Z,43.77
2018-03-26T00:29:25.038Z,42.70
2018-03-26T00:31:53.008Z,40.90
2018-03-26T00:34:20.646Z,43.27
2018-03-26T00:36:48.282Z,45.23
2018-03-26T00:39:15.941Z,44.50
2018-03-26T00:41:43.769Z,42.93
2018-03-26T00:44:11.491Z,40.53
2018-03-26T00:46:39.128Z,40.90
2018-03-26T00:49:06.859Z,39.80
2018-03-26T00:51:34.499Z,40.80
2018-03-26T00:54:02.117Z,38.67
2018-03-26T00:56:30.499Z,40.23
2018-03-26T00:58:58.112Z,38.87
2018-03-26T01:01:25.782Z,43.07
2018-03-26T01:03:53.445Z,40.53
2018-03-26T01:06:21.090Z,37.03
2018-03-26T01:08:49.589Z,34.17
2018-03-26T01:11:17.210Z,38.50
2018-03-26T01:13:44.946Z,38.70
2018-03-26T01:16:12.845Z,41.17
2018-03-26T01:18:40.703Z,41.67
2018-03-26T01:21:08.365Z,42.93
2018-03-26T01:23:35.997Z,40.07
2018-03-26T01:26:04.380Z,39.57
2018-03-26T01:28:32.147Z,39.73
2018-03-26T01:30:59.916Z,42.27
2018-03-26T01:33:27.564Z,43.33
2018-03-26T01:35:55.195Z,42.00
2018-03-26T01:38:22.942Z,42.70
2018-03-26T01:40:50.559Z,41.70
2018-03-26T01:43:19.030Z,39.23
2018-03-26T01:45:46.699Z,44.47
2018-03-26T01:48:14.379Z,39.73
2018-03-26T01:50:42.125Z,41.67
2018-03-26T01:53:09.741Z,41.67
2018-03-26T01:55:37.493Z,40.43
2018-03-26T01:58:05.130Z,39.23
2018-03-26T02:00:32.804Z,40.23
2018-03-26T02:03:01.218Z,40.43
2018-03-26T02:05:28.868Z,38.37
2018-03-26T02:07:56.652Z,39.30
2018-03-26T02:10:24.350Z,44.00
2018-03-26T02:12:52.645Z,38.57
2018-03-26T02:15:21.038Z,41.37
2018-03-26T02:17:51.891Z,39.77
2018-03-26T02:20:19.548Z,43.37
2018-03-26T02:22:47.206Z,39.50
2018-03-26T02:25:14.834Z,43.43
2018-03-26T02:27:42.481Z,41.00
2018-03-26T02:30:12.414Z,38.10
2018-03-26T02:32:40.097Z,40.33
2018-03-26T02:35:08.581Z,60.77
2018-03-26T02:37:36.323Z,41.83
2018-03-26T02:40:04.782Z,37.60
2018-03-26T02:42:32.467Z,39.47
2018-03-26T02:45:00.862Z,41.90
2018-03-26T02:47:28.493Z,43.63
2018-03-26T02:49:56.137Z,35.80
2018-03-26T02:52:23.948Z,41.30
2018-03-26T02:54:53.987Z,37.27
2018-03-26T02:57:21.636Z,40.03
2018-03-26T02:59:49.338Z,41.50
2018-03-26T03:02:17.104Z,36.97
2018-03-26T03:04:44.755Z,43.70
2018-03-26T03:07:12.574Z,40.70
2018-03-26T03:09:41.108Z,41.90
2018-03-26T03:12:08.828Z,40.07
2018-03-26T03:14:36.620Z,38.23
2018-03-26T03:17:05.103Z,40.17
2018-03-26T03:19:33.067Z,39.63
2018-03-26T03:22:00.831Z,39.47
2018-03-26T03:24:29.482Z,39.50
2018-03-26T03:26:57.093Z,39.43
2018-03-26T03:29:24.722Z,38.47
2018-03-26T03:31:52.503Z,40.43
2018-03-26T03:34:20.255Z,36.00
2018-03-26T03:36:47.871Z,39.50
2018-03-26T03:39:15.587Z,41.37
2018-03-26T03:41:43.486Z,38.97
2018-03-26T03:44:11.125Z,40.03
2018-03-26T03:46:38.849Z,38.40
2018-03-26T03:49:06.593Z,40.03
2018-03-26T03:51:34.234Z,40.60
2018-03-26T03:54:01.896Z,45.63
2018-03-26T03:56:29.556Z,43.47
2018-03-26T03:58:57.292Z,46.70
2018-03-26T04:01:26.367Z,43.40
2018-03-26T04:03:54.040Z,48.87
2018-03-26T04:06:21.686Z,44.87
2018-03-26T04:08:49.357Z,44.47
2018-03-26T04:11:17.003Z,44.80
2018-03-26T04:13:44.639Z,49.10
2018-03-26T04:16:12.635Z,50.07
2018-03-26T04:18:40.311Z,49.93
2018-03-26T04:21:07.961Z,51.40
2018-03-26T04:23:35.855Z,47.97
2018-03-26T04:26:03.454Z,51.20
2018-03-26T04:28:31.456Z,52.57
2018-03-26T04:30:59.087Z,54.80
2018-03-26T04:33:26.754Z,51.10
2018-03-26T04:35:54.431Z,54.13
2018-03-26T04:38:22.076Z,47.77
2018-03-26T04:40:49.740Z,48.40
2018-03-26T04:43:17.359Z,48.43
2018-03-26T04:45:45.757Z,46.43
2018-03-26T04:48:13.454Z,47.07
2018-03-26T04:50:41.122Z,47.30
2018-03-26T04:53:08.799Z,53.20
2018-03-26T04:55:36.514Z,55.20
2018-03-26T04:58:04.278Z,47.57
2018-03-26T05:00:32.074Z,47.77
2018-03-26T05:02:59.723Z,52.30
2018-03-26T05:05:29.153Z,53.00
2018-03-26T05:07:57.756Z,50.47
2018-03-26T05:10:26.136Z,56.83
2018-03-26T05:12:54.553Z,52.77
2018-03-26T05:15:22.256Z,49.80
2018-03-26T05:17:49.944Z,54.80
2018-03-26T05:20:18.513Z,52.70
2018-03-26T05:22:46.171Z,51.90
2018-03-26T05:25:13.872Z,48.63
2018-03-26T05:27:41.545Z,56.23
2018-03-26T05:30:09.215Z,54.70
2018-03-26T05:32:36.940Z,50.60
2018-03-26T05:35:05.481Z,52.63
2018-03-26T05:37:33.095Z,45.47
2018-03-26T05:40:00.750Z,51.00
2018-03-26T05:42:29.194Z,46.40
2018-03-26T05:44:56.852Z,44.60
2018-03-26T05:47:24.575Z,49.07
2018-03-26T05:49:52.324Z,46.17
2018-03-26T05:52:19.995Z,45.40
2018-03-26T05:54:47.657Z,41.83
2018-03-26T05:57:16.545Z,50.80
2018-03-26T05:59:44.185Z,41.50
2018-03-26T06:02:12.686Z,45.50
2018-03-26T06:04:40.351Z,42.00
2018-03-26T06:07:08.655Z,40.20
2018-03-26T06:09:36.683Z,42.57
2018-03-26T06:12:04.312Z,44.57
2018-03-26T06:14:32.044Z,43.83
2018-03-26T06:17:10.574Z,40.67
2018-03-26T06:19:38.240Z,35.53
2018-03-26T06:22:05.972Z,38.03
2018-03-26T06:24:33.598Z,37.33
2018-03-26T06:27:02.112Z,39.83
2018-03-26T06:29:31.432Z,37.57
2018-03-26T06:31:59.255Z,36.27
2018-03-26T06:34:26.915Z,38.23
2018-03-26T06:37:09.449Z,38.40
2018-03-26T06:39:37.238Z,36.67
2018-03-26T06:42:04.913Z,36.90
2018-03-26T06:44:32.677Z,35.43
2018-03-26T06:47:00.375Z,36.93
2018-03-26T06:49:28.001Z,36.93
2018-03-26T06:51:55.875Z,55.70
2018-03-26T06:54:23.529Z,50.67
2018-03-26T06:56:51.215Z,37.47
2018-03-26T06:59:19.731Z,36.70
2018-03-26T07:01:47.430Z,36.17
2018-03-26T07:04:15.159Z,36.23
2018-03-26T07:06:42.815Z,32.97
2018-03-26T07:09:10.482Z,37.23
2018-03-26T07:11:38.805Z,34.10
2018-03-26T07:14:06.531Z,35.27
2018-03-26T07:16:34.198Z,35.77
2018-03-26T07:19:01.883Z,36.47
2018-03-26T07:21:29.654Z,36.53
2018-03-26T07:23:57.314Z,43.17
2018-03-26T07:26:25.019Z,41.67
2018-03-26T07:28:52.761Z,39.23
2018-03-26T07:31:20.383Z,42.60
2018-03-26T07:33:48.308Z,37.23
2018-03-26T07:36:15.928Z,36.30
2018-03-26T07:38:44.730Z,45.63
2018-03-26T07:41:12.572Z,37.93
2018-03-26T07:43:40.345Z,40.77
2018-03-26T07:46:08.861Z,42.50
2018-03-26T07:48:36.502Z,40.17
2018-03-26T07:51:04.983Z,41.10
2018-03-26T07:53:32.690Z,35.87
2018-03-26T07:56:00.329Z,40.23
2018-03-26T07:58:28.062Z,41.57
2018-03-26T08:00:55.689Z,38.67
2018-03-26T08:03:24.136Z,38.57
2018-03-26T08:05:51.953Z,39.10
2018-03-26T08:08:19.768Z,42.40
2018-03-26T08:10:47.515Z,42.97
2018-03-26T08:13:15.238Z,44.27
2018-03-26T08:15:43.104Z,43.33
2018-03-26T08:18:10.751Z,48.73
2018-03-26T08:20:38.583Z,44.90
2018-03-26T08:23:06.221Z,46.47
2018-03-26T08:25:33.932Z,47.10
2018-03-26T08:28:01.607Z,45.27
2018-03-26T08:30:29.272Z,48.93
2018-03-26T08:32:56.948Z,45.50
2018-03-26T08:35:24.612Z,48.37
2018-03-26T08:37:52.733Z,47.10
2018-03-26T08:40:20.482Z,45.13
2018-03-26T08:42:48.144Z,44.17
2018-03-26T08:45:16.574Z,46.53
2018-03-26T08:47:44.242Z,46.60
2018-03-26T08:50:11.947Z,43.43
2018-03-26T08:52:39.666Z,47.80
2018-03-26T08:55:07.333Z,46.87
2018-03-26T08:57:35.465Z,47.03
2018-03-26T09:00:03.124Z,40.63
2018-03-26T09:02:30.782Z,43.70
2018-03-26T09:04:58.430Z,44.43
2018-03-26T09:07:26.154Z,39.00
2018-03-26T09:09:53.836Z,45.07
2018-03-26T09:12:23.681Z,41.77
2018-03-26T09:14:51.432Z,42.80
2018-03-26T09:17:19.851Z,47.60
2018-03-26T09:19:47.475Z,45.17
2018-03-26T09:22:15.181Z,49.17
2018-03-26T09:24:43.025Z,43.67
2018-03-26T09:27:10.796Z,40.87
2018-03-26T09:29:38.541Z,45.37
2018-03-26T09:32:06.136Z,42.30
2018-03-26T09:34:35.122Z,44.73
2018-03-26T09:37:02.903Z,46.90
2018-03-26T09:39:30.657Z,43.33
2018-03-26T09:41:58.323Z,43.90
2018-03-26T09:44:26.086Z,42.80
2018-03-26T09:46:54.001Z,42.30
2018-03-26T09:49:21.766Z,46.37
2018-03-26T09:51:49.510Z,41.83
2018-03-26T09:54:17.971Z,47.60
2018-03-26T09:56:46.629Z,42.90
2018-03-26T09:59:14.258Z,40.33
2018-03-26T10:01:47.642Z,40.67
2018-03-26T10:04:16.103Z,40.13
2018-03-26T10:06:45.172Z,37.90
2018-03-26T10:09:12.872Z,41.17
2018-03-26T10:11:40.538Z,40.60
2018-03-26T10:14:09.082Z,43.23
2018-03-26T10:16:36.687Z,41.73
2018-03-26T10:19:05.092Z,44.13
2018-03-26T10:21:35.170Z,42.33
2018-03-26T10:24:03.580Z,44.37
2018-03-26T10:26:31.218Z,42.77
2018-03-26T10:28:59.644Z,41.23
2018-03-26T10:31:27.297Z,42.47
2018-03-26T10:33:56.494Z,41.90
2018-03-26T10:36:24.250Z,45.63
2018-03-26T10:38:51.899Z,44.33
2018-03-26T10:41:19.871Z,45.60
2018-03-26T10:43:47.554Z,46.73
2018-03-26T10:46:15.244Z,47.53
2018-03-26T10:48:43.888Z,42.87
2018-03-26T10:51:11.545Z,45.87
2018-03-26T10:53:40.006Z,45.80
2018-03-26T10:56:08.527Z,38.47
2018-03-26T10:58:36.994Z,38.67
2018-03-26T11:01:04.671Z,44.23
2018-03-26T11:03:32.393Z,40.73
2018-03-26T11:06:00.088Z,44.77
2018-03-26T11:08:27.785Z,43.27
2018-03-26T11:10:56.214Z,41.73
2018-03-26T11:13:25.063Z,38.73
2018-03-26T11:15:53.450Z,40.50
2018-03-26T11:18:21.669Z,43.93
2018-03-26T11:20:49.331Z,40.83
2018-03-26T11:23:17.744Z,37.87
2018-03-26T11:25:45.496Z,42.07
2018-03-26T11:28:13.140Z,40.70
2018-03-26T11:30:40.813Z,39.13
2018-03-26T11:33:08.442Z,40.60
2018-03-26T11:35:37.012Z,43.57
2018-03-26T11:38:04.950Z,39.67
2018-03-26T11:40:32.690Z,38.27
2018-03-26T11:43:01.704Z,42.47
2018-03-26T11:45:30.972Z,41.70
2018-03-26T11:47:58.682Z,39.77
2018-03-26T11:50:26.360Z,41.67
2018-03-26T11:52:54.085Z,39.17
2018-03-26T11:55:21.788Z,40.00
2018-03-26T11:57:49.447Z,40.00
2018-03-26T12:00:17.133Z,38.13
2018-03-26T12:02:45.622Z,38.50
2018-03-26T12:05:13.359Z,43.70
2018-03-26T12:07:41.017Z,43.13
2018-03-26T12:10:09.958Z,40.23
2018-03-26T12:12:37.589Z,40.33
2018-03-26T12:15:05.969Z,40.27
2018-03-26T12:17:34.415Z,40.83
2018-03-26T12:20:14.007Z,39.87
2018-03-26T12:22:41.671Z,42.77
2018-03-26T12:25:25.406Z,38.37
2018-03-26T12:28:04.890Z,41.50
2018-03-26T12:30:34.239Z,45.03
2018-03-26T12:33:01.970Z,45.00
2018-03-26T12:35:41.441Z,39.50
2018-03-26T12:38:09.462Z,41.87
2018-03-26T12:40:47.910Z,42.20
2018-03-26T12:43:16.719Z,46.47
2018-03-26T12:45:56.281Z,43.70
2018-03-26T12:48:23.974Z,44.83
2018-03-26T12:51:03.496Z,43.57
2018-03-26T12:53:31.207Z,46.33
2018-03-26T12:56:00.587Z,43.50
2018-03-26T12:58:40.106Z,43.77
2018-03-26T13:01:19.599Z,46.97
2018-03-26T13:03:47.266Z,42.17
2018-03-26T13:06:14.983Z,45.77
2018-03-26T13:08:42.722Z,43.87
2018-03-26T13:11:10.372Z,45.30
2018-03-26T13:13:38.030Z,44.47
2018-03-26T13:16:05.714Z,41.53
2018-03-26T13:18:33.336Z,44.83
2018-03-26T13:21:00.998Z,48.37
2018-03-26T13:23:28.676Z,45.20
2018-03-26T13:25:57.357Z,47.00
2018-03-26T13:28:25.017Z,44.60
2018-03-26T13:30:52.802Z,48.10
2018-03-26T13:33:20.499Z,45.10
2018-03-26T13:35:48.170Z,46.73
2018-03-26T13:38:15.847Z,46.93
2018-03-26T13:40:43.471Z,45.60
2018-03-26T13:43:11.440Z,44.23
2018-03-26T13:45:39.836Z,53.37
2018-03-26T13:48:07.473Z,46.43
2018-03-26T13:50:35.138Z,50.83
2018-03-26T13:53:03.069Z,46.23
2018-03-26T13:55:30.742Z,48.67
2018-03-26T13:57:58.411Z,49.80
2018-03-26T14:00:26.124Z,50.00
2018-03-26T14:02:54.513Z,46.47
2018-03-26T14:05:22.327Z,44.70
2018-03-26T14:07:50.666Z,49.97
2018-03-26T14:10:30.325Z,45.53
2018-03-26T14:13:09.898Z,47.30
2018-03-26T14:15:49.500Z,51.50
2018-03-26T14:18:17.105Z,49.10
2018-03-26T14:20:44.795Z,50.30
2018-03-26T14:23:13.237Z,46.73
2018-03-26T14:25:42.464Z,51.50
2018-03-26T14:28:10.823Z,46.93
2018-03-26T14:30:38.557Z,54.00
2018-03-26T14:33:06.249Z,48.07
2018-03-26T14:35:42.471Z,48.27
2018-03-26T14:38:10.195Z,54.07
2018-03-26T14:40:38.730Z,50.57
2018-03-26T14:43:06.428Z,51.17
2018-03-26T14:45:34.838Z,50.50
2018-03-26T14:48:02.457Z,53.23
2018-03-26T14:50:30.134Z,53.03
2018-03-26T14:52:58.546Z,46.90
2018-03-26T14:55:26.234Z,46.63
2018-03-26T14:57:53.946Z,48.77
2018-03-26T15:00:21.733Z,48.77
2018-03-26T15:02:49.665Z,50.27
2018-03-26T15:05:18.113Z,51.70
2018-03-26T15:07:45.894Z,52.73
2018-03-26T15:10:13.551Z,51.77
2018-03-26T15:12:41.282Z,53.23
2018-03-26T15:15:08.938Z,52.83
2018-03-26T15:17:36.625Z,49.77
2018-03-26T15:20:04.280Z,49.90
2018-03-26T15:22:31.959Z,50.70
2018-03-26T15:24:59.694Z,52.73
2018-03-26T15:27:28.282Z,50.40
2018-03-26T15:29:56.733Z,49.03
2018-03-26T15:32:24.380Z,48.70
2018-03-26T15:34:53.426Z,52.53
2018-03-26T15:37:21.091Z,52.57
2018-03-26T15:39:48.728Z,50.83
2018-03-26T15:42:16.414Z,49.47
2018-03-26T15:44:44.797Z,47.50
2018-03-26T15:47:12.556Z,52.80
2018-03-26T15:49:40.236Z,47.70
2018-03-26T15:52:09.344Z,46.57
2018-03-26T15:54:37.791Z,44.13
2018-03-26T15:57:05.593Z,45.57
2018-03-26T15:59:34.040Z,47.10
2018-03-26T16:02:01.172Z,46.37
2018-03-26T16:04:28.858Z,44.20
2018-03-26T16:06:56.602Z,49.40
2018-03-26T16:09:24.882Z,46.50
2018-03-26T16:11:52.537Z,48.73
2018-03-26T16:14:20.213Z,43.70
2018-03-26T16:16:47.940Z,45.43
2018-03-26T16:19:15.610Z,44.20
2018-03-26T16:21:43.293Z,46.17
2018-03-26T16:24:10.949Z,51.17
2018-03-26T16:26:39.495Z,46.27
2018-03-26T16:29:07.159Z,44.87
2018-03-26T16:31:35.524Z,44.27
2018-03-26T16:34:03.246Z,41.53
2018-03-26T16:36:30.905Z,47.87
2018-03-26T16:38:58.631Z,44.73
2018-03-26T16:41:38.102Z,43.77
2018-03-26T16:44:05.820Z,42.40
2018-03-26T16:46:33.603Z,43.13
2018-03-26T16:49:01.321Z,44.53
2018-03-26T16:51:28.959Z,47.50
2018-03-26T16:56:30.536Z,46.83
2018-03-26T16:58:58.656Z,42.20
2018-03-26T17:01:26.332Z,47.37
2018-03-26T17:03:53.959Z,44.53
2018-03-26T17:06:22.853Z,45.23
2018-03-26T17:08:52.554Z,44.47
2018-03-26T17:11:21.000Z,45.63
2018-03-26T17:13:49.364Z,42.13
2018-03-26T17:16:17.213Z,45.30
2018-03-26T17:18:44.845Z,48.57
2018-03-26T17:21:13.473Z,45.07
2018-03-26T17:23:42.569Z,47.27
2018-03-26T17:26:10.274Z,44.30
2018-03-26T17:28:38.164Z,46.77
2018-03-26T17:31:05.810Z,46.47
2018-03-26T17:33:34.254Z,47.73
2018-03-26T17:36:02.019Z,47.20
2018-03-26T17:38:29.671Z,44.50
2018-03-26T17:40:58.111Z,47.50
2018-03-26T17:43:25.833Z,69.70
2018-03-26T17:45:53.491Z,56.30
2018-03-26T17:48:22.346Z,54.30
2018-03-26T17:50:50.106Z,50.13
2018-03-26T17:53:17.918Z,49.67
2018-03-26T17:55:46.424Z,53.00
2018-03-26T17:58:14.883Z,47.63
2018-03-26T18:00:43.422Z,47.87
2018-03-26T18:03:11.114Z,47.60
2018-03-26T18:05:38.752Z,45.27
2018-03-26T18:08:06.465Z,46.93
2018-03-26T18:10:34.155Z,43.30
2018-03-26T18:13:01.911Z,48.53
2018-03-26T18:15:29.580Z,45.97
2018-03-26T18:17:57.347Z,48.17
2018-03-26T18:20:24.997Z,46.57
2018-03-26T18:22:53.413Z,45.83
2018-03-26T18:25:21.177Z,44.37
2018-03-26T18:27:48.810Z,42.80
2018-03-26T18:30:17.304Z,50.37
2018-03-26T18:32:45.017Z,48.10
2018-03-26T18:35:12.839Z,45.50
2018-03-26T18:37:40.518Z,50.97
2018-03-26T18:40:08.342Z,48.47
2018-03-26T18:42:36.006Z,49.43
2018-03-26T18:45:03.697Z,48.37
2018-03-26T18:47:31.455Z,47.77
2018-03-26T18:49:59.119Z,48.70
2018-03-26T18:52:26.791Z,48.77
2018-03-26T18:54:54.443Z,48.97
2018-03-26T18:57:22.099Z,47.53
2018-03-26T18:59:49.875Z,51.87
2018-03-26T19:02:17.938Z,49.60
2018-03-26T19:04:45.666Z,47.33
2018-03-26T19:07:13.319Z,48.33
2018-03-26T19:09:41.754Z,51.43
2018-03-26T19:12:09.522Z,52.93
2018-03-26T19:14:37.285Z,49.73
2018-03-26T19:17:04.957Z,52.13
2018-03-26T19:19:33.475Z,51.40
2018-03-26T19:22:01.973Z,49.93
2018-03-26T19:24:29.732Z,51.47
2018-03-26T19:26:59.988Z,51.07
2018-03-26T19:29:27.681Z,51.87
2018-03-26T19:31:55.441Z,52.07
2018-03-26T19:34:23.408Z,55.47
2018-03-26T19:36:52.372Z,46.97
2018-03-26T19:39:20.130Z,53.03
2018-03-26T19:41:47.935Z,51.90
2018-03-26T19:44:15.658Z,50.00
2018-03-26T19:46:43.380Z,50.37
2018-03-26T19:49:11.902Z,52.57
2018-03-26T19:51:39.622Z,51.50
2018-03-26T19:54:07.261Z,52.67
2018-03-26T19:56:35.195Z,49.87
2018-03-26T19:59:02.866Z,49.00
2018-03-26T20:01:30.513Z,50.40
2018-03-26T20:03:58.233Z,52.87
2018-03-26T20:06:25.884Z,50.40
2018-03-26T20:08:53.639Z,50.10
2018-03-26T20:11:21.360Z,50.70
2018-03-26T20:13:50.038Z,50.67
2018-03-26T20:16:18.000Z,48.50
2018-03-26T20:18:45.673Z,53.03
2018-03-26T20:21:14.179Z,54.83
2018-03-26T20:23:42.682Z,50.17
2018-03-26T20:26:11.438Z,54.13
2018-03-26T20:28:39.121Z,50.67
2018-03-26T20:31:06.833Z,53.90
2018-03-26T20:33:34.490Z,48.00
2018-03-26T20:36:02.157Z,48.83
2018-03-26T20:38:29.879Z,51.60
2018-03-26T20:40:57.543Z,49.23
2018-03-26T20:43:25.215Z,57.17
2018-03-26T20:45:52.920Z,51.93
2018-03-26T20:48:20.692Z,50.43
2018-03-26T20:50:48.351Z,49.00
2018-03-26T20:53:16.010Z,50.87
2018-03-26T20:55:43.665Z,51.10
2018-03-26T20:58:11.418Z,49.70
2018-03-26T21:00:39.205Z,49.87
2018-03-26T21:03:06.847Z,48.33
2018-03-26T21:05:34.520Z,50.23
2018-03-26T21:08:02.218Z,49.60
2018-03-26T21:10:29.880Z,52.00
2018-03-26T21:12:58.008Z,49.20
2018-03-26T21:15:25.706Z,58.40
2018-03-26T21:17:54.306Z,54.10
2018-03-26T21:20:22.046Z,53.80
2018-03-26T21:22:49.714Z,51.90
2018-03-26T21:25:17.341Z,56.40
2018-03-26T21:27:45.072Z,53.20
2018-03-26T21:30:12.852Z,52.17
2018-03-26T21:32:40.598Z,55.73
2018-03-26T21:35:10.348Z,52.63
2018-03-26T21:37:39.194Z,51.43
2018-03-26T21:40:07.614Z,54.80
2018-03-26T21:42:36.177Z,50.50
2018-03-26T21:45:03.875Z,53.73
2018-03-26T21:47:31.597Z,49.57
2018-03-26T21:50:00.048Z,55.60
2018-03-26T21:52:27.705Z,53.63
2018-03-26T21:54:55.432Z,52.27
2018-03-26T21:57:23.117Z,54.17
2018-03-26T21:59:50.778Z,52.37
2018-03-26T22:02:18.441Z,56.50
2018-03-26T22:04:46.898Z,54.50
2018-03-26T22:07:14.550Z,53.60
2018-03-26T22:09:42.739Z,52.03
2018-03-26T22:12:10.456Z,53.43
2018-03-26T22:14:38.175Z,53.07
2018-03-26T22:17:05.914Z,52.30
2018-03-26T22:19:33.642Z,50.83
2018-03-26T22:22:02.314Z,49.80
2018-03-26T22:24:31.867Z,54.13
2018-03-26T22:26:59.533Z,54.30
2018-03-26T22:29:27.199Z,54.37
2018-03-26T22:31:54.855Z,56.10
2018-03-26T22:34:22.482Z,56.87
2018-03-26T22:36:50.174Z,55.70
2018-03-26T22:39:19.224Z,55.53
2018-03-26T22:41:47.785Z,54.83
2018-03-26T22:44:16.228Z,50.97
2018-03-26T22:46:44.976Z,55.43
2018-03-26T22:49:12.735Z,55.30
2018-03-26T22:51:40.340Z,58.77
2018-03-26T22:54:08.002Z,55.43
2018-03-26T22:56:35.741Z,57.97
2018-03-26T22:59:03.373Z,58.27
2018-03-26T23:01:31.761Z,58.13
2018-03-26T23:03:59.424Z,61.73
2018-03-26T23:06:27.190Z,56.20
2018-03-26T23:08:54.792Z,60.33
2018-03-26T23:11:22.464Z,57.60
2018-03-26T23:13:50.133Z,55.03
2018-03-26T23:16:18.020Z,59.40
2018-03-26T23:18:46.430Z,57.10
2018-03-26T23:21:14.102Z,59.47
2018-03-26T23:23:42.922Z,57.93
2018-03-26T23:26:10.648Z,57.53
2018-03-26T23:28:38.652Z,57.57
2018-03-26T23:31:06.284Z,59.77
2018-03-26T23:33:33.921Z,59.83
2018-03-26T23:36:01.582Z,54.07
2018-03-26T23:38:29.244Z,54.73
2018-03-26T23:40:56.959Z,55.53
2018-03-26T23:43:24.671Z,57.17
2018-03-26T23:45:53.866Z,59.90
2018-03-26T23:48:22.592Z,53.90
2018-03-26T23:50:50.277Z,55.77
2018-03-26T23:53:17.926Z,57.83
2018-03-26T23:55:45.601Z,52.63
2018-03-26T23:58:13.266Z,55.00
